Jenner, Canada
Current Conditions -  °F | °C
As of 2:00 AM on Monday 24 Nov 2014 (Local Time) from CYXH Reporting Station
Overcast Overcast  
Wind Chill: 32°   Ceiling: 11000
Heat Index: 32°   Visibility: 9mi
Dew Point: 27°   Wind: 0mph
Humidity: 80%   Direction: NA
Pressure: 29.82"   Gusts: NA
Location:  50.75°N, 111.18°W
Report Text: CYXH 240900Z AUTO 00000KT 9SM SCT080 OVC110 M00/M03 A2982 RMK SLP121
Loading
Personal Weather Stations






























Interactive Weather Map New forecast layout! Learn more

10-Day Weather Forecast

Advertisements
Track Severe Weather on mobile